createdAt,value
2022-11-01T00:00:48.733Z,18.75
2022-11-01T00:03:16.369Z,18.78
2022-11-01T00:05:43.926Z,18.80
2022-11-01T00:08:13.215Z,18.84
2022-11-01T00:10:40.881Z,18.87
2022-11-01T00:13:08.431Z,18.90
2022-11-01T00:15:36.392Z,18.92
2022-11-01T00:18:04.250Z,18.92
2022-11-01T00:20:33.729Z,18.91
2022-11-01T00:23:01.927Z,18.90
2022-11-01T00:25:29.766Z,18.90
2022-11-01T00:27:57.371Z,18.90
2022-11-01T00:30:24.903Z,18.88
2022-11-01T00:32:53.008Z,18.87
2022-11-01T00:35:20.987Z,18.85
2022-11-01T00:37:48.555Z,18.84
2022-11-01T00:40:16.221Z,18.82
2022-11-01T00:42:43.758Z,18.78
2022-11-01T00:45:11.344Z,18.76
2022-11-01T00:47:39.299Z,18.72
2022-11-01T00:50:06.866Z,18.69
2022-11-01T00:52:34.432Z,18.66
2022-11-01T00:55:02.009Z,18.64
2022-11-01T00:57:29.910Z,18.62
2022-11-01T00:59:57.855Z,18.60
2022-11-01T01:02:25.516Z,18.58
2022-11-01T01:04:53.143Z,18.58
2022-11-01T01:07:20.687Z,18.56
2022-11-01T01:09:48.297Z,18.50
2022-11-01T01:12:16.222Z,18.34
2022-11-01T01:14:43.750Z,18.14
2022-11-01T01:17:11.369Z,18.01
2022-11-01T01:19:39.268Z,17.94
2022-11-01T01:22:06.810Z,17.88
2022-11-01T01:24:34.566Z,17.83
2022-11-01T01:27:02.135Z,17.78
2022-11-01T01:29:29.671Z,17.73
2022-11-01T01:31:57.301Z,17.69
2022-11-01T01:34:24.865Z,17.65
2022-11-01T01:36:52.419Z,17.60
2022-11-01T01:39:20.008Z,17.56
2022-11-01T01:41:59.704Z,17.53
2022-11-01T01:44:27.312Z,17.49
2022-11-01T01:46:54.858Z,17.48
2022-11-01T01:49:22.368Z,17.46
2022-11-01T01:51:49.977Z,17.46
2022-11-01T01:54:17.541Z,17.45
2022-11-01T01:56:45.541Z,17.43
2022-11-01T01:59:14.314Z,17.41
2022-11-01T02:01:41.976Z,17.39
2022-11-01T02:04:10.043Z,17.38
2022-11-01T02:06:37.587Z,17.40
2022-11-01T02:09:07.701Z,17.40
2022-11-01T02:11:35.632Z,17.40
2022-11-01T02:14:03.210Z,17.39
2022-11-01T02:16:30.778Z,17.38
2022-11-01T02:18:58.324Z,17.41
2022-11-01T02:21:27.213Z,17.43
2022-11-01T02:23:55.204Z,17.45
2022-11-01T02:26:23.098Z,17.48
2022-11-01T02:28:50.692Z,17.53
2022-11-01T02:31:18.205Z,17.56
2022-11-01T02:33:45.747Z,17.58
2022-11-01T02:36:13.557Z,17.58
2022-11-01T02:38:41.084Z,17.57
2022-11-01T02:41:08.582Z,17.56
2022-11-01T02:43:36.213Z,17.56
2022-11-01T02:46:26.206Z,17.58
2022-11-01T02:48:53.741Z,17.59
2022-11-01T02:51:21.296Z,17.59
2022-11-01T02:53:48.827Z,17.58
2022-11-01T02:56:16.373Z,17.55
2022-11-01T02:58:44.786Z,17.55
2022-11-01T03:01:15.407Z,17.57
2022-11-01T03:03:43.098Z,17.60
2022-11-01T03:06:10.629Z,17.63
2022-11-01T03:08:38.636Z,17.67
2022-11-01T03:11:06.911Z,17.69
2022-11-01T03:13:34.463Z,17.73
2022-11-01T03:16:02.041Z,17.75
2022-11-01T03:18:29.651Z,17.78
2022-11-01T03:20:59.388Z,17.80
2022-11-01T03:23:27.364Z,17.82
2022-11-01T03:25:54.952Z,17.82
2022-11-01T03:28:22.949Z,17.82
2022-11-01T03:30:50.502Z,17.83
2022-11-01T03:33:20.596Z,17.82
2022-11-01T03:35:48.556Z,17.82
2022-11-01T03:38:16.124Z,17.81
2022-11-01T03:40:44.075Z,17.82
2022-11-01T03:43:11.609Z,17.82
2022-11-01T03:45:40.527Z,17.80
2022-11-01T03:48:08.548Z,17.81
2022-11-01T03:50:36.409Z,17.79
2022-11-01T03:53:03.981Z,17.79
2022-11-01T03:55:31.570Z,17.76
2022-11-01T03:58:00.804Z,17.75
2022-11-01T04:00:28.986Z,17.74
2022-11-01T04:02:56.749Z,17.73
2022-11-01T04:05:24.333Z,17.73
2022-11-01T04:07:52.511Z,17.72
2022-11-01T04:10:20.122Z,17.72
2022-11-01T04:12:48.820Z,17.71
2022-11-01T04:15:33.641Z,17.68
2022-11-01T04:18:18.550Z,17.66
2022-11-01T04:20:49.094Z,17.65
2022-11-01T04:23:17.030Z,17.65
2022-11-01T04:25:44.590Z,17.63
2022-11-01T04:28:12.227Z,17.59
2022-11-01T04:30:39.845Z,17.54
2022-11-01T04:33:10.568Z,17.52
2022-11-01T04:35:38.702Z,17.48
2022-11-01T04:38:06.668Z,17.48
2022-11-01T04:40:34.511Z,17.48
2022-11-01T04:43:02.106Z,17.47
2022-11-01T04:45:31.326Z,17.48
2022-11-01T04:47:59.534Z,17.48
2022-11-01T04:50:27.363Z,17.48
2022-11-01T04:52:54.894Z,17.49
2022-11-01T04:55:22.823Z,17.49
2022-11-01T04:57:50.435Z,17.49
2022-11-01T05:00:18.381Z,17.49
2022-11-01T05:02:45.948Z,17.49
2022-11-01T05:05:13.606Z,17.47
2022-11-01T05:07:41.172Z,17.46
2022-11-01T05:10:10.363Z,17.45
2022-11-01T05:12:37.984Z,17.41
2022-11-01T05:15:05.660Z,17.38
2022-11-01T05:17:33.560Z,17.36
2022-11-01T05:20:01.194Z,17.34
2022-11-01T05:22:28.773Z,17.34
2022-11-01T05:24:56.699Z,17.32
2022-11-01T05:27:24.308Z,17.28
2022-11-01T05:29:51.893Z,17.26
2022-11-01T05:32:19.452Z,17.23
2022-11-01T05:34:49.932Z,17.23
2022-11-01T05:37:17.896Z,17.21
2022-11-01T05:39:45.446Z,17.20
2022-11-01T05:42:13.099Z,17.19
2022-11-01T05:44:40.708Z,17.17
2022-11-01T05:47:09.660Z,17.16
2022-11-01T05:49:39.145Z,17.14
2022-11-01T05:52:06.724Z,17.13
2022-11-01T05:54:34.332Z,17.12
2022-11-01T05:57:01.955Z,17.10
2022-11-01T05:59:29.545Z,17.06
2022-11-01T06:01:57.653Z,17.04
2022-11-01T06:04:25.398Z,17.01
2022-11-01T06:06:52.963Z,17.01
2022-11-01T06:09:20.581Z,17.00
2022-11-01T06:11:49.869Z,16.97
2022-11-01T06:14:17.891Z,16.96
2022-11-01T06:16:45.515Z,16.97
2022-11-01T06:19:13.160Z,16.99
2022-11-01T06:21:40.797Z,17.00
2022-11-01T06:24:11.972Z,16.99
2022-11-01T06:26:39.913Z,17.00
2022-11-01T06:29:07.586Z,16.99
2022-11-01T06:31:35.235Z,16.99
2022-11-01T06:34:02.887Z,17.02
2022-11-01T06:36:32.048Z,17.02
2022-11-01T06:38:59.661Z,17.03
2022-11-01T06:41:27.246Z,17.06
2022-11-01T06:43:54.825Z,17.07
2022-11-01T06:46:22.851Z,17.09
2022-11-01T06:48:50.480Z,17.11
2022-11-01T06:51:18.416Z,17.12
2022-11-01T06:53:46.041Z,17.14
2022-11-01T06:56:13.718Z,17.18
2022-11-01T06:58:41.338Z,17.21
2022-11-01T07:01:09.062Z,17.23
2022-11-01T07:03:37.628Z,17.25
2022-11-01T07:06:05.259Z,17.27
2022-11-01T07:08:32.886Z,17.26
2022-11-01T07:11:00.747Z,17.25
2022-11-01T07:13:33.879Z,17.25
2022-11-01T07:16:02.157Z,17.27
2022-11-01T07:18:30.670Z,17.27
2022-11-01T07:20:58.268Z,17.27
2022-11-01T07:23:25.903Z,17.24
2022-11-01T07:25:54.105Z,17.20
2022-11-01T07:28:22.099Z,17.18
2022-11-01T07:30:49.787Z,17.14
2022-11-01T07:33:17.427Z,17.12
2022-11-01T07:35:45.052Z,17.09
2022-11-01T07:38:14.798Z,17.07
2022-11-01T07:40:42.942Z,17.00
2022-11-01T07:43:10.604Z,16.93
2022-11-01T07:45:38.412Z,16.84
2022-11-01T07:48:06.190Z,16.74
2022-11-01T07:50:34.379Z,16.64
2022-11-01T07:53:02.873Z,16.53
2022-11-01T07:55:30.626Z,16.44
2022-11-01T07:57:58.302Z,16.34
2022-11-01T08:00:26.214Z,16.23
2022-11-01T08:02:53.996Z,16.16
2022-11-01T08:05:22.033Z,16.07
2022-11-01T08:07:49.881Z,15.98
2022-11-01T08:10:17.595Z,15.89
2022-11-01T08:12:45.582Z,15.86
2022-11-01T08:15:13.430Z,15.86
2022-11-01T08:17:41.436Z,15.87
2022-11-01T08:20:09.201Z,15.87
2022-11-01T08:22:37.059Z,15.88
2022-11-01T08:25:04.880Z,15.89
2022-11-01T08:27:34.617Z,15.95
2022-11-01T08:30:03.717Z,16.04
2022-11-01T08:32:31.436Z,16.11
2022-11-01T08:34:59.511Z,16.19
2022-11-01T08:37:27.287Z,16.26
2022-11-01T08:39:57.287Z,16.28
2022-11-01T08:42:25.345Z,16.23
2022-11-01T08:44:53.153Z,16.23
2022-11-01T08:47:20.875Z,16.19
2022-11-01T08:49:48.705Z,16.20
2022-11-01T08:52:18.130Z,16.22
2022-11-01T08:54:46.511Z,16.22
2022-11-01T08:57:16.173Z,16.25
2022-11-01T08:59:43.893Z,16.29
2022-11-01T09:02:11.728Z,16.32
2022-11-01T09:04:41.878Z,16.34
2022-11-01T09:07:10.164Z,16.37
2022-11-01T09:09:37.972Z,16.34
2022-11-01T09:12:07.043Z,16.32
2022-11-01T09:14:36.615Z,16.30
2022-11-01T09:17:05.800Z,16.28
2022-11-01T09:19:34.402Z,16.26
2022-11-01T09:22:02.364Z,16.23
2022-11-01T09:24:30.088Z,16.24
2022-11-01T09:26:57.971Z,16.25
2022-11-01T09:29:27.345Z,16.26
2022-11-01T09:31:55.407Z,16.32
2022-11-01T09:34:23.188Z,16.35
2022-11-01T09:36:51.260Z,16.39
2022-11-01T09:39:22.250Z,16.43
2022-11-01T09:41:50.095Z,16.48
2022-11-01T09:44:18.680Z,16.60
2022-11-01T09:46:46.573Z,16.90
2022-11-01T09:49:15.045Z,17.45
2022-11-01T09:51:42.972Z,18.09
2022-11-01T09:54:11.502Z,18.69
2022-11-01T09:56:39.726Z,19.31
2022-11-01T09:59:07.582Z,19.86
2022-11-01T10:01:40.547Z,20.35
2022-11-01T10:04:09.127Z,20.96
2022-11-01T10:06:40.850Z,21.64
2022-11-01T10:09:08.892Z,22.09
2022-11-01T10:11:36.950Z,22.26
2022-11-01T10:14:04.878Z,22.49
2022-11-01T10:16:32.742Z,22.82
2022-11-01T10:19:01.105Z,23.08
2022-11-01T10:21:29.881Z,23.23
2022-11-01T10:23:57.851Z,23.15
2022-11-01T10:26:26.072Z,22.79
2022-11-01T10:28:53.901Z,22.20
2022-11-01T10:31:22.280Z,21.74
2022-11-01T10:33:50.235Z,21.47
2022-11-01T10:36:18.138Z,21.40
2022-11-01T10:41:36.081Z,21.24
2022-11-01T10:44:03.918Z,21.24
2022-11-01T10:46:32.329Z,21.12
2022-11-01T10:49:00.255Z,20.73
2022-11-01T10:51:28.233Z,20.44
2022-11-01T10:53:59.454Z,20.23
2022-11-01T10:56:27.405Z,19.96
2022-11-01T10:58:55.367Z,19.75
2022-11-01T11:01:23.487Z,19.55
2022-11-01T11:03:51.590Z,19.39
2022-11-01T11:06:21.094Z,19.22
2022-11-01T11:08:48.951Z,19.08
2022-11-01T11:11:16.848Z,18.95
2022-11-01T11:13:44.741Z,18.79
2022-11-01T11:16:12.595Z,18.73
2022-11-01T11:18:44.194Z,18.73
2022-11-01T11:21:12.099Z,18.69
2022-11-01T11:23:39.948Z,18.57
2022-11-01T11:26:07.690Z,18.41
2022-11-01T11:28:36.026Z,18.32
2022-11-01T11:31:07.288Z,18.28
2022-11-01T11:33:35.087Z,18.27
2022-11-01T11:36:03.159Z,18.38
2022-11-01T11:38:31.020Z,18.43
2022-11-01T11:40:58.959Z,18.41
2022-11-01T11:43:30.901Z,18.34
2022-11-01T11:45:58.727Z,18.30
2022-11-01T11:48:26.614Z,18.29
2022-11-01T11:50:54.898Z,18.29
2022-11-01T11:53:23.535Z,18.32
2022-11-01T11:55:53.423Z,18.40
2022-11-01T11:58:21.280Z,18.53
2022-11-01T12:00:49.106Z,18.60
2022-11-01T12:03:17.817Z,18.72
2022-11-01T12:05:45.601Z,18.76
2022-11-01T12:08:14.168Z,18.73
2022-11-01T12:10:42.069Z,18.69
2022-11-01T12:13:10.052Z,18.70
2022-11-01T12:15:41.268Z,18.73
2022-11-01T12:18:12.933Z,18.77
2022-11-01T12:20:43.950Z,18.78
2022-11-01T12:23:11.873Z,18.75
2022-11-01T12:25:39.755Z,18.74
2022-11-01T12:28:07.507Z,18.74
2022-11-01T12:30:35.552Z,18.68
2022-11-01T12:33:03.921Z,18.63
2022-11-01T12:35:31.916Z,18.64
2022-11-01T12:38:00.109Z,18.70
2022-11-01T12:40:28.410Z,18.77
2022-11-01T12:42:56.371Z,18.77
2022-11-01T12:45:25.477Z,18.76
2022-11-01T12:47:53.330Z,18.75
2022-11-01T12:50:21.076Z,18.76
2022-11-01T12:52:48.957Z,18.89
2022-11-01T12:55:19.823Z,19.12
2022-11-01T12:57:52.555Z,19.26
2022-11-01T13:00:21.348Z,19.27
2022-11-01T13:02:49.222Z,19.19
2022-11-01T13:05:17.204Z,19.12
2022-11-01T13:07:45.150Z,19.04
2022-11-01T13:10:15.275Z,19.00
2022-11-01T13:12:43.395Z,19.08
2022-11-01T13:15:11.433Z,19.11
2022-11-01T13:17:39.541Z,19.12
2022-11-01T13:20:07.465Z,19.18
2022-11-01T13:22:36.724Z,19.25
2022-11-01T13:25:04.658Z,19.35
2022-11-01T13:27:32.596Z,19.40
2022-11-01T13:30:00.414Z,19.47
2022-11-01T13:32:28.240Z,19.64
2022-11-01T13:34:57.357Z,19.75
2022-11-01T13:37:25.422Z,19.81
2022-11-01T13:39:53.460Z,19.85
2022-11-01T13:42:22.437Z,19.88
2022-11-01T13:44:50.300Z,19.89
2022-11-01T13:47:18.546Z,19.84
2022-11-01T13:49:46.326Z,19.78
2022-11-01T13:52:14.169Z,19.74
2022-11-01T13:54:42.122Z,19.88
2022-11-01T13:57:10.211Z,20.04
2022-11-01T13:59:38.864Z,20.25
2022-11-01T14:02:06.828Z,20.42
2022-11-01T14:04:34.929Z,20.57
2022-11-01T14:07:04.993Z,20.68
2022-11-01T14:09:33.027Z,20.55
2022-11-01T14:12:01.795Z,20.37
2022-11-01T14:14:29.661Z,20.24
2022-11-01T14:16:57.485Z,20.13
2022-11-01T14:19:27.617Z,20.19
2022-11-01T14:21:55.790Z,20.35
2022-11-01T14:24:30.702Z,20.62
2022-11-01T14:27:03.766Z,20.88
2022-11-01T14:29:33.069Z,20.97
2022-11-01T14:32:01.589Z,20.99
2022-11-01T14:34:29.842Z,21.02
2022-11-01T14:36:57.661Z,20.95
2022-11-01T14:39:26.198Z,20.75
2022-11-01T14:41:56.336Z,20.59
2022-11-01T14:44:26.091Z,20.40
2022-11-01T14:46:54.019Z,20.19
2022-11-01T14:49:21.813Z,19.87
2022-11-01T14:51:50.203Z,19.41
2022-11-01T14:54:18.093Z,18.95
2022-11-01T14:56:46.107Z,18.58
2022-11-01T14:59:15.641Z,18.28
2022-11-01T15:01:43.807Z,18.01
2022-11-01T15:04:12.288Z,17.80
2022-11-01T15:06:40.035Z,17.61
2022-11-01T15:09:07.920Z,17.44
2022-11-01T15:11:38.447Z,17.29
2022-11-01T15:14:06.394Z,17.15
2022-11-01T15:16:34.387Z,17.03
2022-11-01T15:19:02.600Z,16.91
2022-11-01T15:21:31.488Z,16.81
2022-11-01T15:24:00.035Z,16.73
2022-11-01T15:26:28.228Z,16.65
2022-11-01T15:28:56.051Z,16.55
2022-11-01T15:31:23.837Z,16.48
2022-11-01T15:33:51.687Z,16.41
2022-11-01T15:36:20.346Z,16.34
2022-11-01T15:38:48.256Z,16.28
2022-11-01T15:41:16.095Z,16.20
2022-11-01T15:43:43.873Z,16.14
2022-11-01T15:46:11.729Z,16.07
2022-11-01T15:48:44.556Z,16.02
2022-11-01T15:51:12.393Z,15.99
2022-11-01T15:53:40.790Z,15.97
2022-11-01T15:56:08.872Z,15.93
2022-11-01T15:58:36.675Z,15.85
2022-11-01T16:01:06.992Z,15.79
2022-11-01T16:03:35.115Z,15.72
2022-11-01T16:06:02.872Z,15.66
2022-11-01T16:08:30.899Z,15.60
2022-11-01T16:10:58.731Z,15.55
2022-11-01T16:13:27.024Z,15.51
2022-11-01T16:15:54.919Z,15.46
2022-11-01T16:18:22.916Z,15.41
2022-11-01T16:20:52.904Z,15.36
2022-11-01T16:23:20.643Z,15.31
2022-11-01T16:25:48.859Z,15.22
2022-11-01T16:28:16.740Z,15.16
2022-11-01T16:30:45.684Z,15.10
2022-11-01T16:33:13.987Z,15.08
2022-11-01T16:35:41.900Z,15.06
2022-11-01T16:38:10.190Z,15.01
2022-11-01T16:40:39.203Z,14.94
2022-11-01T16:43:07.214Z,14.87
2022-11-01T16:45:34.991Z,14.82
2022-11-01T16:48:03.192Z,14.79
2022-11-01T16:50:32.726Z,14.78
2022-11-01T16:53:00.660Z,14.78
2022-11-01T16:55:30.427Z,14.75
2022-11-01T16:57:59.225Z,14.71
2022-11-01T17:00:27.845Z,14.66
2022-11-01T17:02:59.878Z,14.63
2022-11-01T17:05:27.983Z,14.59
2022-11-01T17:07:56.056Z,14.56
2022-11-01T17:10:25.825Z,14.51
2022-11-01T17:12:54.934Z,14.49
2022-11-01T17:15:24.527Z,14.47
2022-11-01T17:17:53.081Z,14.41
2022-11-01T17:20:23.724Z,14.40
2022-11-01T17:22:52.770Z,14.39
2022-11-01T17:25:23.276Z,14.37
2022-11-01T17:27:57.851Z,14.32
2022-11-01T17:30:27.239Z,14.27
2022-11-01T17:32:57.816Z,14.26
2022-11-01T17:35:30.186Z,14.25
2022-11-01T17:38:09.749Z,14.22
2022-11-01T17:40:39.805Z,14.21
2022-11-01T17:43:07.612Z,14.18
2022-11-01T17:45:35.408Z,14.15
2022-11-01T17:48:07.895Z,14.13
2022-11-01T17:50:35.743Z,14.11
2022-11-01T17:53:03.763Z,14.08
2022-11-01T17:55:33.897Z,14.10
2022-11-01T17:58:03.183Z,14.10
2022-11-01T18:00:37.772Z,14.07
2022-11-01T18:03:06.647Z,14.06
2022-11-01T18:05:35.662Z,14.07
2022-11-01T18:08:08.282Z,14.06
2022-11-01T18:10:40.353Z,14.03
2022-11-01T18:13:09.796Z,14.01
2022-11-01T18:15:40.565Z,13.99
2022-11-01T18:18:10.618Z,13.94
2022-11-01T18:20:45.903Z,13.93
2022-11-01T18:23:14.828Z,13.92
2022-11-01T18:25:44.140Z,13.93
2022-11-01T18:28:14.058Z,13.91
2022-11-01T18:30:43.260Z,13.90
2022-11-01T18:33:12.096Z,13.87
2022-11-01T18:35:41.550Z,13.87
2022-11-01T18:38:10.751Z,13.86
2022-11-01T18:40:39.918Z,13.84
2022-11-01T18:43:09.588Z,13.81
2022-11-01T18:46:04.336Z,13.78
2022-11-01T18:48:30.002Z,13.77
2022-11-01T18:51:04.629Z,13.74
2022-11-01T18:53:37.888Z,13.71
2022-11-01T18:56:08.969Z,13.70
2022-11-01T18:58:38.917Z,13.67
2022-11-01T19:01:09.179Z,13.66
2022-11-01T19:03:38.673Z,13.62
2022-11-01T19:06:08.988Z,13.62
2022-11-01T19:08:38.531Z,13.60
2022-11-01T19:11:07.889Z,13.56
2022-11-01T19:13:37.095Z,13.56
2022-11-01T19:16:10.716Z,13.58
2022-11-01T19:18:42.400Z,13.56
2022-11-01T19:21:12.552Z,13.54
2022-11-01T19:23:41.741Z,13.52
2022-11-01T19:26:13.264Z,13.51
2022-11-01T19:28:42.859Z,13.47
2022-11-01T19:31:12.002Z,13.43
2022-11-01T19:33:41.348Z,13.40
2022-11-01T19:36:15.809Z,13.37
2022-11-01T19:38:45.998Z,13.39
2022-11-01T19:41:15.138Z,13.34
2022-11-01T19:43:44.697Z,13.33
2022-11-01T19:46:18.580Z,13.34
2022-11-01T19:48:47.883Z,13.32
2022-11-01T19:51:17.229Z,13.30
2022-11-01T19:53:46.281Z,13.26
2022-11-01T19:56:19.379Z,13.25
2022-11-01T19:58:49.939Z,13.21
2022-11-01T20:01:20.264Z,13.19
2022-11-01T20:03:49.660Z,13.18
2022-11-01T20:06:24.281Z,13.15
2022-11-01T20:08:53.359Z,13.09
2022-11-01T20:11:21.380Z,13.08
2022-11-01T20:13:49.312Z,13.06
2022-11-01T20:16:17.519Z,13.06
2022-11-01T20:18:48.693Z,13.05
2022-11-01T20:21:16.554Z,13.04
2022-11-01T20:23:44.749Z,13.03
2022-11-01T20:26:13.020Z,13.05
2022-11-01T20:28:40.926Z,13.06
2022-11-01T20:31:08.735Z,13.05
2022-11-01T20:33:36.588Z,13.03
2022-11-01T20:36:10.761Z,13.02
2022-11-01T20:38:39.158Z,13.00
2022-11-01T20:41:07.026Z,13.00
2022-11-01T20:43:36.412Z,12.98
2022-11-01T20:46:05.503Z,12.99
2022-11-01T20:48:33.511Z,12.99
2022-11-01T20:51:01.504Z,13.01
2022-11-01T20:53:29.961Z,13.03
2022-11-01T20:55:58.651Z,13.04
2022-11-01T20:58:27.102Z,13.06
2022-11-01T21:00:54.925Z,13.08
2022-11-01T21:03:22.839Z,13.11
2022-11-01T21:05:51.293Z,13.14
2022-11-01T21:08:23.247Z,13.16
2022-11-01T21:10:51.134Z,13.17
2022-11-01T21:13:21.539Z,13.18
2022-11-01T21:15:49.812Z,13.19
2022-11-01T21:18:17.830Z,13.18
2022-11-01T21:20:46.342Z,13.16
2022-11-01T21:23:14.226Z,13.14
2022-11-01T21:25:42.096Z,13.12
2022-11-01T21:28:10.005Z,13.12
2022-11-01T21:30:37.830Z,13.13
2022-11-01T21:33:06.164Z,13.11
2022-11-01T21:35:34.747Z,13.12
2022-11-01T21:38:02.876Z,13.12
2022-11-01T21:40:31.015Z,13.15
2022-11-01T21:42:58.855Z,13.15
2022-11-01T21:45:28.214Z,13.14
2022-11-01T21:47:57.658Z,13.12
2022-11-01T21:50:25.532Z,13.10
2022-11-01T21:52:53.298Z,13.11
2022-11-01T21:55:21.148Z,13.14
2022-11-01T21:57:50.205Z,13.14
2022-11-01T22:00:18.014Z,13.13
2022-11-01T22:02:46.305Z,13.15
2022-11-01T22:05:14.077Z,13.18
2022-11-01T22:07:41.877Z,13.16
2022-11-01T22:10:12.176Z,13.16
2022-11-01T22:12:39.916Z,13.14
2022-11-01T22:15:07.657Z,13.16
2022-11-01T22:17:35.435Z,13.20
2022-11-01T22:20:03.219Z,13.18
2022-11-01T22:22:31.275Z,13.15
2022-11-01T22:24:59.495Z,13.15
2022-11-01T22:27:27.261Z,13.13
2022-11-01T22:29:54.948Z,13.11
2022-11-01T22:32:22.794Z,13.10
2022-11-01T22:34:53.189Z,13.08
2022-11-01T22:37:20.867Z,13.07
2022-11-01T22:39:52.876Z,13.07
2022-11-01T22:42:22.064Z,13.09
2022-11-01T22:44:49.873Z,13.09
2022-11-01T22:47:18.571Z,13.10
2022-11-01T22:49:46.359Z,13.08
2022-11-01T22:52:15.904Z,13.07
2022-11-01T22:54:43.550Z,13.05
2022-11-01T22:57:11.250Z,13.04
2022-11-01T22:59:41.387Z,13.04
2022-11-01T23:02:09.218Z,13.02
2022-11-01T23:04:37.113Z,13.03
2022-11-01T23:07:05.659Z,13.05
2022-11-01T23:09:33.337Z,13.09
2022-11-01T23:12:18.615Z,13.11
2022-11-01T23:14:47.751Z,13.10
2022-11-01T23:17:15.960Z,13.12
2022-11-01T23:19:43.675Z,13.13
2022-11-01T23:22:11.368Z,13.13
2022-11-01T23:24:39.425Z,13.16
2022-11-01T23:27:08.213Z,13.18
2022-11-01T23:29:36.286Z,13.18
2022-11-01T23:32:03.978Z,13.16
2022-11-01T23:34:31.626Z,13.17
2022-11-01T23:36:59.609Z,13.17
2022-11-01T23:39:29.097Z,13.18
2022-11-01T23:41:56.732Z,13.22
2022-11-01T23:44:24.370Z,13.25
2022-11-01T23:46:53.045Z,13.32
2022-11-01T23:49:21.014Z,13.40
2022-11-01T23:51:53.504Z,13.45
2022-11-01T23:54:21.131Z,13.49
2022-11-01T23:56:48.774Z,13.52
2022-11-01T23:59:16.344Z,13.57
